createdAt,value
2023-03-27T00:03:03.172Z,6.41
2023-03-27T00:08:09.388Z,6.46
2023-03-27T00:13:13.652Z,6.47
2023-03-27T00:18:20.185Z,6.43
2023-03-27T00:23:24.477Z,6.47
2023-03-27T00:28:30.346Z,6.42
2023-03-27T00:33:36.022Z,6.37
2023-03-27T00:38:40.593Z,6.38
2023-03-27T00:43:45.520Z,6.42
2023-03-27T00:48:52.440Z,6.41
2023-03-27T00:53:57.535Z,6.37
2023-03-27T00:59:04.017Z,6.32
2023-03-27T01:04:10.020Z,6.37
2023-03-27T01:09:20.551Z,6.35
2023-03-27T01:14:32.732Z,6.29
2023-03-27T01:20:14.317Z,6.27
2023-03-27T01:25:56.937Z,6.35
2023-03-27T01:31:10.282Z,6.33
2023-03-27T01:36:40.476Z,6.36
2023-03-27T01:41:52.888Z,6.43
2023-03-27T01:47:00.724Z,6.36
2023-03-27T01:52:09.235Z,6.25
2023-03-27T01:57:20.503Z,6.26
2023-03-27T02:02:28.130Z,6.34
2023-03-27T02:07:35.756Z,6.30
2023-03-27T02:12:46.918Z,6.34
2023-03-27T02:17:57.156Z,6.33
2023-03-27T02:23:01.977Z,6.27
2023-03-27T02:28:34.861Z,6.29
2023-03-27T02:33:48.864Z,6.27
2023-03-27T02:38:59.310Z,6.30
2023-03-27T02:44:13.075Z,6.32
2023-03-27T02:49:34.468Z,6.32
2023-03-27T02:54:42.150Z,6.37
2023-03-27T02:59:52.120Z,6.25
2023-03-27T03:05:00.992Z,6.24
2023-03-27T03:10:11.730Z,6.24
2023-03-27T03:15:18.613Z,6.25
2023-03-27T03:20:24.685Z,6.24
2023-03-27T03:25:30.734Z,6.26
2023-03-27T03:30:42.131Z,6.25
2023-03-27T03:35:49.722Z,6.22
2023-03-27T03:41:11.472Z,6.27
2023-03-27T03:46:17.283Z,6.20
2023-03-27T03:51:22.246Z,6.23
2023-03-27T03:56:27.824Z,6.19
2023-03-27T04:01:33.683Z,6.10
2023-03-27T04:06:43.208Z,6.07
2023-03-27T04:11:47.624Z,6.13
2023-03-27T04:17:02.868Z,6.09
2023-03-27T04:22:07.136Z,5.97
2023-03-27T04:27:13.781Z,5.99
2023-03-27T04:32:40.284Z,5.99
2023-03-27T04:38:10.483Z,5.97
2023-03-27T04:43:26.006Z,5.99
2023-03-27T04:48:32.740Z,6.02
2023-03-27T04:53:43.030Z,6.01
2023-03-27T04:58:48.805Z,6.04
2023-03-27T05:03:55.285Z,5.99
2023-03-27T05:09:11.274Z,5.94
2023-03-27T05:14:16.389Z,5.87
2023-03-27T05:19:22.094Z,5.86
2023-03-27T05:24:34.210Z,5.86
2023-03-27T05:29:46.970Z,5.86
2023-03-27T05:34:55.613Z,5.78
2023-03-27T05:40:01.935Z,5.72
2023-03-27T05:45:08.358Z,5.71
2023-03-27T05:50:19.209Z,5.92
2023-03-27T05:55:26.398Z,5.84
2023-03-27T06:00:34.327Z,5.73
2023-03-27T06:05:41.527Z,5.65
2023-03-27T06:10:46.824Z,5.60
2023-03-27T06:16:01.220Z,5.48
2023-03-27T06:21:25.707Z,5.50
2023-03-27T06:26:35.409Z,5.57
2023-03-27T06:31:40.839Z,5.63
2023-03-27T06:36:51.085Z,5.57
2023-03-27T06:41:56.412Z,5.68
2023-03-27T06:47:05.648Z,5.69
2023-03-27T06:52:31.224Z,5.57
2023-03-27T06:57:48.760Z,5.51
2023-03-27T07:02:56.977Z,5.35
2023-03-27T07:08:31.226Z,5.26
2023-03-27T07:13:37.054Z,5.21
2023-03-27T07:18:43.590Z,4.91
2023-03-27T07:23:49.136Z,4.70
2023-03-27T07:29:03.949Z,4.62
2023-03-27T07:34:08.824Z,4.55
2023-03-27T07:39:35.499Z,4.54
2023-03-27T07:44:39.916Z,4.50
2023-03-27T07:49:45.590Z,4.45
2023-03-27T07:54:52.600Z,4.48
2023-03-27T07:59:59.677Z,4.27
2023-03-27T08:05:32.674Z,4.12
2023-03-27T08:10:45.242Z,4.13
2023-03-27T08:15:49.731Z,4.07
2023-03-27T08:21:03.214Z,4.07
2023-03-27T08:26:10.790Z,4.11
2023-03-27T08:31:34.431Z,4.10
2023-03-27T08:36:41.600Z,3.94
2023-03-27T08:41:55.065Z,3.77
2023-03-27T08:47:11.927Z,3.57
2023-03-27T08:52:25.009Z,3.43
2023-03-27T08:57:34.450Z,3.29
2023-03-27T09:02:52.068Z,3.18
2023-03-27T09:08:03.148Z,3.06
2023-03-27T09:13:15.499Z,3.03
2023-03-27T09:18:24.288Z,2.99
2023-03-27T09:23:36.132Z,3.17
2023-03-27T09:28:58.669Z,3.04
2023-03-27T09:34:09.054Z,2.88
2023-03-27T09:39:17.216Z,2.65
2023-03-27T09:44:26.897Z,2.75
2023-03-27T09:49:36.892Z,2.93
2023-03-27T09:54:56.141Z,3.19
2023-03-27T10:00:26.838Z,3.06
2023-03-27T10:05:32.982Z,3.32
2023-03-27T10:10:42.059Z,3.55
2023-03-27T10:16:17.910Z,3.72
2023-03-27T10:21:40.424Z,3.64
2023-03-27T10:26:48.216Z,3.69
2023-03-27T10:31:55.630Z,3.68
2023-03-27T10:37:28.351Z,3.37
2023-03-27T10:43:13.136Z,3.20
2023-03-27T10:48:34.160Z,3.47
2023-03-27T10:53:44.569Z,3.47
2023-03-27T10:58:54.114Z,3.57
2023-03-27T11:04:11.433Z,3.37
2023-03-27T11:09:27.009Z,3.24
2023-03-27T11:14:49.391Z,3.36
2023-03-27T11:20:07.584Z,3.54
2023-03-27T11:25:43.546Z,3.52
2023-03-27T11:30:58.608Z,3.45
2023-03-27T11:36:37.575Z,3.46
2023-03-27T11:41:52.188Z,3.33
2023-03-27T11:47:11.566Z,3.37
2023-03-27T11:52:27.309Z,3.44
2023-03-27T11:57:40.422Z,3.41
2023-03-27T12:03:20.499Z,3.28
2023-03-27T12:08:33.488Z,3.26
2023-03-27T12:14:02.685Z,3.21
2023-03-27T12:19:38.191Z,3.20
2023-03-27T12:25:15.415Z,3.18
2023-03-27T12:30:48.532Z,3.23
2023-03-27T12:35:58.469Z,3.34
2023-03-27T12:41:13.883Z,3.42
2023-03-27T12:46:36.448Z,3.37
2023-03-27T12:51:44.520Z,3.30
2023-03-27T12:57:05.280Z,3.45
2023-03-27T13:02:42.983Z,3.46
2023-03-27T13:07:54.987Z,3.40
2023-03-27T13:13:40.143Z,3.45
2023-03-27T13:18:59.657Z,3.38
2023-03-27T13:24:17.379Z,3.36
2023-03-27T13:29:24.928Z,3.44
2023-03-27T13:34:40.373Z,3.46
2023-03-27T13:40:07.301Z,3.28
2023-03-27T13:45:18.811Z,3.29
2023-03-27T13:51:27.124Z,3.27
2023-03-27T13:56:41.324Z,3.32
2023-03-27T14:02:04.762Z,3.21
2023-03-27T14:07:41.469Z,3.31
2023-03-27T14:13:01.547Z,3.25
2023-03-27T14:18:43.921Z,3.32
2023-03-27T14:23:51.831Z,3.19
2023-03-27T14:29:06.126Z,3.16
2023-03-27T14:34:35.325Z,3.14
2023-03-27T14:40:20.595Z,3.17
2023-03-27T14:45:27.955Z,3.22
2023-03-27T14:50:36.288Z,3.23
2023-03-27T14:55:42.686Z,3.40
2023-03-27T15:01:17.496Z,3.22
2023-03-27T15:06:28.409Z,3.06
2023-03-27T15:11:41.065Z,3.05
2023-03-27T15:17:00.538Z,3.19
2023-03-27T15:22:08.462Z,3.40
2023-03-27T15:27:19.511Z,3.52
2023-03-27T15:32:23.679Z,3.40
2023-03-27T15:37:30.878Z,3.37
2023-03-27T15:42:47.715Z,3.44
2023-03-27T15:47:59.984Z,3.40
2023-03-27T15:53:05.636Z,3.31
2023-03-27T15:58:18.445Z,3.14
2023-03-27T16:03:25.655Z,3.11
2023-03-27T16:08:33.779Z,3.07
2023-03-27T16:13:43.347Z,2.85
2023-03-27T16:18:47.666Z,2.80
2023-03-27T16:23:53.308Z,2.85
2023-03-27T16:29:01.722Z,2.82
2023-03-27T16:34:12.417Z,2.83
2023-03-27T16:39:28.795Z,2.80
2023-03-27T16:44:33.137Z,2.73
2023-03-27T16:49:37.466Z,2.58
2023-03-27T16:54:44.750Z,2.52
2023-03-27T16:59:48.646Z,2.34
2023-03-27T17:04:53.333Z,2.26
2023-03-27T17:09:58.812Z,2.10
2023-03-27T17:15:03.673Z,1.99
2023-03-27T17:20:09.034Z,1.95
2023-03-27T17:25:14.514Z,1.86
2023-03-27T17:30:30.527Z,1.73
2023-03-27T17:35:42.301Z,1.59
2023-03-27T17:40:48.141Z,1.55
2023-03-27T17:45:52.159Z,1.59
2023-03-27T17:51:08.240Z,1.66
2023-03-27T17:56:15.280Z,1.71
2023-03-27T18:01:23.174Z,1.67
2023-03-27T18:06:27.944Z,1.58
2023-03-27T18:11:33.575Z,1.40
2023-03-27T18:16:37.908Z,1.34
2023-03-27T18:21:42.199Z,1.23
2023-03-27T18:26:48.173Z,1.12
2023-03-27T18:31:52.373Z,1.04
2023-03-27T18:36:56.406Z,0.94
2023-03-27T18:42:02.455Z,0.93
2023-03-27T18:47:06.693Z,0.90
2023-03-27T18:52:12.056Z,0.84
2023-03-27T18:57:19.956Z,0.88
2023-03-27T19:02:25.908Z,0.94
2023-03-27T19:07:30.820Z,0.98
2023-03-27T19:12:36.993Z,0.97
2023-03-27T19:18:14.238Z,0.92
2023-03-27T19:23:28.235Z,0.82
2023-03-27T19:28:33.735Z,0.73
2023-03-27T19:33:37.829Z,0.70
2023-03-27T19:38:42.929Z,0.62
2023-03-27T19:43:50.171Z,0.42
2023-03-27T19:48:54.288Z,0.40
2023-03-27T19:54:15.125Z,0.35
2023-03-27T19:59:30.406Z,0.20
2023-03-27T20:04:35.668Z,0.14
2023-03-27T20:09:40.078Z,0.14
2023-03-27T20:14:54.623Z,0.03
2023-03-27T20:20:12.051Z,-0.07
2023-03-27T20:25:16.297Z,-0.14
2023-03-27T20:30:23.160Z,-0.28
2023-03-27T20:35:27.394Z,-0.37
2023-03-27T20:40:53.002Z,-0.40
2023-03-27T20:46:05.450Z,-0.51
2023-03-27T20:51:14.697Z,-0.58
2023-03-27T20:56:20.841Z,-0.66
2023-03-27T21:01:27.468Z,-0.81
2023-03-27T21:06:32.079Z,-0.76
2023-03-27T21:11:36.619Z,-0.88
2023-03-27T21:16:42.417Z,-0.93
2023-03-27T21:21:46.929Z,-1.00
2023-03-27T21:26:51.244Z,-1.00
2023-03-27T21:31:56.973Z,-1.05
2023-03-27T21:37:02.760Z,-1.03
2023-03-27T21:42:07.089Z,-1.17
2023-03-27T21:47:12.608Z,-1.25
2023-03-27T21:52:16.704Z,-1.19
2023-03-27T21:57:20.757Z,-1.26
2023-03-27T22:02:26.556Z,-1.24
2023-03-27T22:07:31.041Z,-1.43
2023-03-27T22:12:36.074Z,-1.42
2023-03-27T22:17:42.186Z,-1.54
2023-03-27T22:22:46.607Z,-1.69
2023-03-27T22:27:51.111Z,-1.86
2023-03-27T22:32:56.687Z,-1.87
2023-03-27T22:38:00.924Z,-1.86
2023-03-27T22:43:05.181Z,-1.94
2023-03-27T22:48:10.958Z,-2.14
2023-03-27T22:53:15.063Z,-2.23
2023-03-27T22:58:20.186Z,-2.21
2023-03-27T23:03:27.438Z,-2.29
2023-03-27T23:08:32.006Z,-2.02
2023-03-27T23:13:38.052Z,-2.11
2023-03-27T23:18:43.735Z,-2.10
2023-03-27T23:23:48.094Z,-2.09
2023-03-27T23:28:52.593Z,-2.06
2023-03-27T23:33:58.291Z,-2.01
2023-03-27T23:39:02.824Z,-2.05
2023-03-27T23:44:08.265Z,-2.05
2023-03-27T23:49:14.860Z,-2.16
2023-03-27T23:54:18.961Z,-2.11
2023-03-27T23:59:23.238Z,-2.35
